Somerville, Texas
Current Conditions -  °F | °C
As of 1:15 PM on Thursday 30 Oct 2014 (Local Time) from K11R Reporting Station
Clear Clear  
Wind Chill: 78°   Ceiling: Unl
Heat Index: 78°   Visibility: 10mi
Dew Point: 51°   Wind: 5mph
Humidity: 39%   Direction: 360°N
Pressure: 30.12"   Gusts: NA
Location:  30.35°N, 96.53°W
Report Text: K11R 301815Z AUTO 36004KT 10SM CLR 25/11 A3012 RMK AO2 T02530105
Loading
Personal Weather Stations






























Interactive Weather Map
Tropical Storm Tracking
New forecast layout! Learn more

10-Day Weather Forecast

Advertisements
Track Severe Weather on mobile